Terminal Aerodrome Forecast
Issued by NWS Portland, ME

Home | Current Version | Previous Version | Text Only | Print | Product List | Glossary On
Versions: 1 2 3 4 5 6 7 8 9 10 11 12 13 14 15 16 17 18
000
FTUS41 KGYX 152321
TAFPWM
TAF
KPWM 152321Z 1600/1624 19006KT P6SM SCT120
     FM160900 23004KT P6SM -SHRA SCT025 OVC080
     FM162100 20006KT P6SM BKN100=

USA.gov is the U.S. government's official web portal to all federal, state and local government web resources and services.